sensor_id;sensor_type;location;lat;lon;timestamp;temperature;humidity
31443;SHT31;18065;55.876;9.830;2023-03-25T00:01:16;22.54;47.99
31443;SHT31;18065;55.876;9.830;2023-03-25T00:03:50;22.51;48.02
31443;SHT31;18065;55.876;9.830;2023-03-25T00:06:18;22.51;48.01
31443;SHT31;18065;55.876;9.830;2023-03-25T00:08:47;22.51;48.03
31443;SHT31;18065;55.876;9.830;2023-03-25T00:11:16;22.48;48.09
31443;SHT31;18065;55.876;9.830;2023-03-25T00:13:44;22.52;48.08
31443;SHT31;18065;55.876;9.830;2023-03-25T00:16:13;22.49;48.02
31443;SHT31;18065;55.876;9.830;2023-03-25T00:18:45;22.51;47.84
31443;SHT31;18065;55.876;9.830;2023-03-25T00:21:15;22.54;47.87
31443;SHT31;18065;55.876;9.830;2023-03-25T00:23:44;22.54;47.96
31443;SHT31;18065;55.876;9.830;2023-03-25T00:26:12;22.58;47.99
31443;SHT31;18065;55.876;9.830;2023-03-25T00:28:40;22.58;47.93
31443;SHT31;18065;55.876;9.830;2023-03-25T00:31:10;22.58;47.85
31443;SHT31;18065;55.876;9.830;2023-03-25T00:33:39;22.56;47.89
31443;SHT31;18065;55.876;9.830;2023-03-25T00:36:11;22.59;47.92
31443;SHT31;18065;55.876;9.830;2023-03-25T00:38:42;22.58;47.72
31443;SHT31;18065;55.876;9.830;2023-03-25T00:41:13;22.54;47.77
31443;SHT31;18065;55.876;9.830;2023-03-25T00:43:47;22.56;47.66
31443;SHT31;18065;55.876;9.830;2023-03-25T00:46:15;22.54;47.57
31443;SHT31;18065;55.876;9.830;2023-03-25T00:48:44;22.55;47.72
31443;SHT31;18065;55.876;9.830;2023-03-25T00:51:15;22.52;47.64
31443;SHT31;18065;55.876;9.830;2023-03-25T00:53:46;22.54;47.66
31443;SHT31;18065;55.876;9.830;2023-03-25T00:56:16;22.52;47.65
31443;SHT31;18065;55.876;9.830;2023-03-25T00:58:44;22.51;47.52
31443;SHT31;18065;55.876;9.830;2023-03-25T01:01:14;22.52;47.55
31443;SHT31;18065;55.876;9.830;2023-03-25T01:03:43;22.51;47.56
31443;SHT31;18065;55.876;9.830;2023-03-25T01:06:16;22.49;47.67
31443;SHT31;18065;55.876;9.830;2023-03-25T01:08:45;22.52;47.65
31443;SHT31;18065;55.876;9.830;2023-03-25T01:11:15;22.49;47.70
31443;SHT31;18065;55.876;9.830;2023-03-25T01:13:44;22.48;47.77
31443;SHT31;18065;55.876;9.830;2023-03-25T01:16:13;22.52;47.79
31443;SHT31;18065;55.876;9.830;2023-03-25T01:18:41;22.48;47.93
31443;SHT31;18065;55.876;9.830;2023-03-25T01:21:09;22.49;47.78
31443;SHT31;18065;55.876;9.830;2023-03-25T01:23:40;22.48;47.77
31443;SHT31;18065;55.876;9.830;2023-03-25T01:26:09;22.51;47.81
31443;SHT31;18065;55.876;9.830;2023-03-25T01:28:37;22.48;47.93
31443;SHT31;18065;55.876;9.830;2023-03-25T01:31:06;22.47;47.75
31443;SHT31;18065;55.876;9.830;2023-03-25T01:33:35;22.49;47.90
31443;SHT31;18065;55.876;9.830;2023-03-25T01:36:04;22.47;47.92
31443;SHT31;18065;55.876;9.830;2023-03-25T01:38:33;22.48;47.99
31443;SHT31;18065;55.876;9.830;2023-03-25T01:41:05;22.48;47.96
31443;SHT31;18065;55.876;9.830;2023-03-25T01:43:33;22.49;48.00
31443;SHT31;18065;55.876;9.830;2023-03-25T01:46:02;22.51;47.96
31443;SHT31;18065;55.876;9.830;2023-03-25T01:48:30;22.49;47.97
31443;SHT31;18065;55.876;9.830;2023-03-25T01:51:02;22.51;47.88
31443;SHT31;18065;55.876;9.830;2023-03-25T01:53:33;22.49;47.88
31443;SHT31;18065;55.876;9.830;2023-03-25T01:56:05;22.51;47.93
31443;SHT31;18065;55.876;9.830;2023-03-25T01:58:34;22.49;47.89
31443;SHT31;18065;55.876;9.830;2023-03-25T02:01:03;22.49;48.02
31443;SHT31;18065;55.876;9.830;2023-03-25T02:03:35;22.48;48.00
31443;SHT31;18065;55.876;9.830;2023-03-25T02:06:04;22.49;48.57
31443;SHT31;18065;55.876;9.830;2023-03-25T02:08:36;22.48;48.33
31443;SHT31;18065;55.876;9.830;2023-03-25T02:11:08;22.44;48.35
31443;SHT31;18065;55.876;9.830;2023-03-25T02:13:37;22.45;48.33
31443;SHT31;18065;55.876;9.830;2023-03-25T02:16:13;22.44;48.31
31443;SHT31;18065;55.876;9.830;2023-03-25T02:18:49;22.42;48.32
31443;SHT31;18065;55.876;9.830;2023-03-25T02:30:01;22.38;48.24
31443;SHT31;18065;55.876;9.830;2023-03-25T02:32:36;22.39;48.14
31443;SHT31;18065;55.876;9.830;2023-03-25T02:35:12;22.41;48.13
31443;SHT31;18065;55.876;9.830;2023-03-25T02:40:34;22.41;48.20
31443;SHT31;18065;55.876;9.830;2023-03-25T02:43:03;22.37;48.02
31443;SHT31;18065;55.876;9.830;2023-03-25T02:45:33;22.38;48.03
31443;SHT31;18065;55.876;9.830;2023-03-25T02:48:03;22.41;48.10
31443;SHT31;18065;55.876;9.830;2023-03-25T02:50:34;22.39;48.24
31443;SHT31;18065;55.876;9.830;2023-03-25T02:53:04;22.38;48.26
31443;SHT31;18065;55.876;9.830;2023-03-25T02:55:37;22.38;48.11
31443;SHT31;18065;55.876;9.830;2023-03-25T02:58:08;22.41;48.17
31443;SHT31;18065;55.876;9.830;2023-03-25T03:00:38;22.39;48.06
31443;SHT31;18065;55.876;9.830;2023-03-25T03:03:06;22.38;48.03
31443;SHT31;18065;55.876;9.830;2023-03-25T03:05:35;22.37;48.01
31443;SHT31;18065;55.876;9.830;2023-03-25T03:08:08;22.38;48.05
31443;SHT31;18065;55.876;9.830;2023-03-25T03:10:47;22.39;47.99
31443;SHT31;18065;55.876;9.830;2023-03-25T03:13:20;22.39;48.14
31443;SHT31;18065;55.876;9.830;2023-03-25T03:15:52;22.38;48.00
31443;SHT31;18065;55.876;9.830;2023-03-25T03:18:23;22.37;48.05
31443;SHT31;18065;55.876;9.830;2023-03-25T03:21:01;22.38;47.99
31443;SHT31;18065;55.876;9.830;2023-03-25T03:23:34;22.38;48.05
31443;SHT31;18065;55.876;9.830;2023-03-25T03:26:07;22.35;48.13
31443;SHT31;18065;55.876;9.830;2023-03-25T03:28:38;22.37;48.03
31443;SHT31;18065;55.876;9.830;2023-03-25T03:31:10;22.37;47.99
31443;SHT31;18065;55.876;9.830;2023-03-25T03:33:44;22.35;47.98
31443;SHT31;18065;55.876;9.830;2023-03-25T03:36:15;22.37;48.04
31443;SHT31;18065;55.876;9.830;2023-03-25T03:38:44;22.35;47.91
31443;SHT31;18065;55.876;9.830;2023-03-25T03:41:17;22.35;47.93
31443;SHT31;18065;55.876;9.830;2023-03-25T03:43:47;22.34;47.98
31443;SHT31;18065;55.876;9.830;2023-03-25T03:46:17;22.34;47.97
31443;SHT31;18065;55.876;9.830;2023-03-25T03:48:47;22.38;48.00
31443;SHT31;18065;55.876;9.830;2023-03-25T03:51:18;22.35;47.96
31443;SHT31;18065;55.876;9.830;2023-03-25T03:53:49;22.35;48.02
31443;SHT31;18065;55.876;9.830;2023-03-25T03:56:22;22.35;48.03
31443;SHT31;18065;55.876;9.830;2023-03-25T03:58:53;22.37;48.10
31443;SHT31;18065;55.876;9.830;2023-03-25T04:01:25;22.37;48.02
31443;SHT31;18065;55.876;9.830;2023-03-25T04:03:55;22.35;48.06
31443;SHT31;18065;55.876;9.830;2023-03-25T04:06:26;22.35;47.89
31443;SHT31;18065;55.876;9.830;2023-03-25T04:08:55;22.32;48.02
31443;SHT31;18065;55.876;9.830;2023-03-25T04:11:32;22.32;48.04
31443;SHT31;18065;55.876;9.830;2023-03-25T04:14:01;22.32;48.07
31443;SHT31;18065;55.876;9.830;2023-03-25T04:16:30;22.31;48.16
31443;SHT31;18065;55.876;9.830;2023-03-25T04:19:01;22.32;48.18
31443;SHT31;18065;55.876;9.830;2023-03-25T04:21:30;22.32;48.15
31443;SHT31;18065;55.876;9.830;2023-03-25T04:23:58;22.31;48.23
31443;SHT31;18065;55.876;9.830;2023-03-25T04:26:27;22.29;48.30
31443;SHT31;18065;55.876;9.830;2023-03-25T04:29:00;22.31;48.30
31443;SHT31;18065;55.876;9.830;2023-03-25T04:31:29;22.28;48.32
31443;SHT31;18065;55.876;9.830;2023-03-25T04:33:58;22.28;48.27
31443;SHT31;18065;55.876;9.830;2023-03-25T04:36:26;22.28;48.30
31443;SHT31;18065;55.876;9.830;2023-03-25T04:38:57;22.28;48.25
31443;SHT31;18065;55.876;9.830;2023-03-25T04:41:26;22.34;48.11
31443;SHT31;18065;55.876;9.830;2023-03-25T04:43:56;22.29;47.29
31443;SHT31;18065;55.876;9.830;2023-03-25T04:46:27;22.28;47.28
31443;SHT31;18065;55.876;9.830;2023-03-25T04:48:55;22.31;47.56
31443;SHT31;18065;55.876;9.830;2023-03-25T04:51:24;22.28;47.74
31443;SHT31;18065;55.876;9.830;2023-03-25T04:53:54;22.29;47.80
31443;SHT31;18065;55.876;9.830;2023-03-25T04:56:22;22.29;47.89
31443;SHT31;18065;55.876;9.830;2023-03-25T04:58:51;22.28;47.78
31443;SHT31;18065;55.876;9.830;2023-03-25T05:01:21;22.29;47.78
31443;SHT31;18065;55.876;9.830;2023-03-25T05:03:58;22.28;47.86
31443;SHT31;18065;55.876;9.830;2023-03-25T05:06:30;22.25;47.81
31443;SHT31;18065;55.876;9.830;2023-03-25T05:08:59;22.28;47.67
31443;SHT31;18065;55.876;9.830;2023-03-25T05:11:28;22.29;47.78
31443;SHT31;18065;55.876;9.830;2023-03-25T05:13:57;22.27;47.89
31443;SHT31;18065;55.876;9.830;2023-03-25T05:16:25;22.28;47.78
31443;SHT31;18065;55.876;9.830;2023-03-25T05:18:54;22.28;47.78
31443;SHT31;18065;55.876;9.830;2023-03-25T05:21:25;22.25;47.60
31443;SHT31;18065;55.876;9.830;2023-03-25T05:23:53;22.28;47.67
31443;SHT31;18065;55.876;9.830;2023-03-25T05:26:22;22.28;47.50
31443;SHT31;18065;55.876;9.830;2023-03-25T05:28:58;22.27;47.54
31443;SHT31;18065;55.876;9.830;2023-03-25T05:31:27;22.27;47.42
31443;SHT31;18065;55.876;9.830;2023-03-25T05:33:55;22.27;47.21
31443;SHT31;18065;55.876;9.830;2023-03-25T05:36:26;22.24;47.31
31443;SHT31;18065;55.876;9.830;2023-03-25T05:38:55;22.25;47.25
31443;SHT31;18065;55.876;9.830;2023-03-25T05:41:25;22.24;47.32
31443;SHT31;18065;55.876;9.830;2023-03-25T05:43:57;22.22;47.38
31443;SHT31;18065;55.876;9.830;2023-03-25T05:46:26;22.25;47.41
31443;SHT31;18065;55.876;9.830;2023-03-25T05:48:55;22.22;47.39
31443;SHT31;18065;55.876;9.830;2023-03-25T05:51:28;22.22;47.39
31443;SHT31;18065;55.876;9.830;2023-03-25T05:53:57;22.22;47.34
31443;SHT31;18065;55.876;9.830;2023-03-25T05:56:26;22.22;47.21
31443;SHT31;18065;55.876;9.830;2023-03-25T05:58:54;22.21;47.32
31443;SHT31;18065;55.876;9.830;2023-03-25T06:01:23;22.25;47.33
31443;SHT31;18065;55.876;9.830;2023-03-25T06:03:51;22.24;47.48
31443;SHT31;18065;55.876;9.830;2023-03-25T06:06:21;22.25;47.87
31443;SHT31;18065;55.876;9.830;2023-03-25T06:08:52;22.24;48.11
31443;SHT31;18065;55.876;9.830;2023-03-25T06:11:21;22.24;48.03
31443;SHT31;18065;55.876;9.830;2023-03-25T06:13:49;22.25;48.08
31443;SHT31;18065;55.876;9.830;2023-03-25T06:16:18;22.24;48.03
31443;SHT31;18065;55.876;9.830;2023-03-25T06:18:51;22.25;48.13
31443;SHT31;18065;55.876;9.830;2023-03-25T06:21:20;22.22;48.17
31443;SHT31;18065;55.876;9.830;2023-03-25T06:23:53;22.24;48.24
31443;SHT31;18065;55.876;9.830;2023-03-25T06:26:22;22.25;48.32
31443;SHT31;18065;55.876;9.830;2023-03-25T06:28:50;22.25;48.27
31443;SHT31;18065;55.876;9.830;2023-03-25T06:31:19;22.27;48.27
31443;SHT31;18065;55.876;9.830;2023-03-25T06:33:50;22.24;48.33
31443;SHT31;18065;55.876;9.830;2023-03-25T06:36:19;22.22;48.36
31443;SHT31;18065;55.876;9.830;2023-03-25T06:38:49;22.25;48.37
31443;SHT31;18065;55.876;9.830;2023-03-25T06:41:20;22.24;48.34
31443;SHT31;18065;55.876;9.830;2023-03-25T06:43:49;22.24;48.46
31443;SHT31;18065;55.876;9.830;2023-03-25T06:46:17;22.24;48.29
31443;SHT31;18065;55.876;9.830;2023-03-25T06:48:46;22.25;48.38
31443;SHT31;18065;55.876;9.830;2023-03-25T06:51:14;22.27;48.32
31443;SHT31;18065;55.876;9.830;2023-03-25T06:53:42;22.24;48.32
31443;SHT31;18065;55.876;9.830;2023-03-25T06:56:10;22.22;48.24
31443;SHT31;18065;55.876;9.830;2023-03-25T06:58:41;22.24;48.09
31443;SHT31;18065;55.876;9.830;2023-03-25T07:01:10;22.21;47.88
31443;SHT31;18065;55.876;9.830;2023-03-25T07:03:38;22.24;47.86
31443;SHT31;18065;55.876;9.830;2023-03-25T07:06:07;22.24;47.77
31443;SHT31;18065;55.876;9.830;2023-03-25T07:08:35;22.24;47.57
31443;SHT31;18065;55.876;9.830;2023-03-25T07:11:04;22.24;47.51
31443;SHT31;18065;55.876;9.830;2023-03-25T07:13:33;22.25;47.96
31443;SHT31;18065;55.876;9.830;2023-03-25T07:16:04;22.25;47.96
31443;SHT31;18065;55.876;9.830;2023-03-25T07:18:33;22.22;48.21
31443;SHT31;18065;55.876;9.830;2023-03-25T07:21:01;22.22;48.35
31443;SHT31;18065;55.876;9.830;2023-03-25T07:23:30;22.21;48.40
31443;SHT31;18065;55.876;9.830;2023-03-25T07:25:58;22.21;48.41
31443;SHT31;18065;55.876;9.830;2023-03-25T07:28:26;22.20;48.47
31443;SHT31;18065;55.876;9.830;2023-03-25T07:30:55;22.21;48.60
31443;SHT31;18065;55.876;9.830;2023-03-25T07:33:26;22.24;48.53
31443;SHT31;18065;55.876;9.830;2023-03-25T07:35:54;22.21;48.54
31443;SHT31;18065;55.876;9.830;2023-03-25T07:38:23;22.24;48.61
31443;SHT31;18065;55.876;9.830;2023-03-25T07:40:51;22.21;48.59
31443;SHT31;18065;55.876;9.830;2023-03-25T07:43:19;22.25;48.61
31443;SHT31;18065;55.876;9.830;2023-03-25T07:45:48;22.24;48.62
31443;SHT31;18065;55.876;9.830;2023-03-25T07:48:16;22.24;48.62
31443;SHT31;18065;55.876;9.830;2023-03-25T07:50:49;22.22;48.61
31443;SHT31;18065;55.876;9.830;2023-03-25T07:53:18;22.24;48.71
31443;SHT31;18065;55.876;9.830;2023-03-25T07:55:46;22.24;48.69
31443;SHT31;18065;55.876;9.830;2023-03-25T07:58:15;22.22;48.75
31443;SHT31;18065;55.876;9.830;2023-03-25T08:00:44;22.24;48.72
31443;SHT31;18065;55.876;9.830;2023-03-25T08:03:13;22.22;48.75
31443;SHT31;18065;55.876;9.830;2023-03-25T08:05:43;22.24;48.88
31443;SHT31;18065;55.876;9.830;2023-03-25T08:08:15;22.27;48.93
31443;SHT31;18065;55.876;9.830;2023-03-25T08:10:43;22.22;49.05
31443;SHT31;18065;55.876;9.830;2023-03-25T08:13:13;22.22;49.07
31443;SHT31;18065;55.876;9.830;2023-03-25T08:15:41;22.24;49.10
31443;SHT31;18065;55.876;9.830;2023-03-25T08:18:09;22.20;49.06
31443;SHT31;18065;55.876;9.830;2023-03-25T08:20:38;22.24;48.97
31443;SHT31;18065;55.876;9.830;2023-03-25T08:23:06;22.25;48.85
31443;SHT31;18065;55.876;9.830;2023-03-25T08:25:39;22.25;48.80
31443;SHT31;18065;55.876;9.830;2023-03-25T08:28:07;22.27;48.79
31443;SHT31;18065;55.876;9.830;2023-03-25T08:30:36;22.28;48.79
31443;SHT31;18065;55.876;9.830;2023-03-25T08:33:05;22.29;48.72
31443;SHT31;18065;55.876;9.830;2023-03-25T08:35:35;22.28;48.71
31443;SHT31;18065;55.876;9.830;2023-03-25T08:38:03;22.28;48.65
31443;SHT31;18065;55.876;9.830;2023-03-25T08:40:32;22.28;48.72
31443;SHT31;18065;55.876;9.830;2023-03-25T08:43:05;22.28;48.73
31443;SHT31;18065;55.876;9.830;2023-03-25T08:45:33;22.27;48.71
31443;SHT31;18065;55.876;9.830;2023-03-25T08:48:02;22.29;48.74
31443;SHT31;18065;55.876;9.830;2023-03-25T08:50:30;22.32;48.69
31443;SHT31;18065;55.876;9.830;2023-03-25T08:52:59;22.29;48.69
31443;SHT31;18065;55.876;9.830;2023-03-25T08:55:28;22.34;48.71
31443;SHT31;18065;55.876;9.830;2023-03-25T08:57:56;22.32;48.68
31443;SHT31;18065;55.876;9.830;2023-03-25T09:00:31;22.31;48.76
31443;SHT31;18065;55.876;9.830;2023-03-25T09:03:00;22.29;48.72
31443;SHT31;18065;55.876;9.830;2023-03-25T09:05:29;22.31;48.75
31443;SHT31;18065;55.876;9.830;2023-03-25T09:07:58;22.31;48.80
31443;SHT31;18065;55.876;9.830;2023-03-25T09:10:26;22.29;48.78
31443;SHT31;18065;55.876;9.830;2023-03-25T09:12:54;22.28;48.78
31443;SHT31;18065;55.876;9.830;2023-03-25T09:15:23;22.29;48.75
31443;SHT31;18065;55.876;9.830;2023-03-25T09:17:54;22.31;48.74
31443;SHT31;18065;55.876;9.830;2023-03-25T09:20:22;22.27;48.63
31443;SHT31;18065;55.876;9.830;2023-03-25T09:22:50;22.27;48.68
31443;SHT31;18065;55.876;9.830;2023-03-25T09:25:19;22.31;48.69
31443;SHT31;18065;55.876;9.830;2023-03-25T09:27:47;22.28;48.68
31443;SHT31;18065;55.876;9.830;2023-03-25T09:30:16;22.29;48.72
31443;SHT31;18065;55.876;9.830;2023-03-25T09:32:45;22.28;48.64
31443;SHT31;18065;55.876;9.830;2023-03-25T09:35:16;22.29;48.74
31443;SHT31;18065;55.876;9.830;2023-03-25T09:37:44;22.31;48.68
31443;SHT31;18065;55.876;9.830;2023-03-25T09:40:13;22.29;48.68
31443;SHT31;18065;55.876;9.830;2023-03-25T09:42:46;22.31;48.63
31443;SHT31;18065;55.876;9.830;2023-03-25T09:45:21;22.31;47.97
31443;SHT31;18065;55.876;9.830;2023-03-25T09:47:52;22.35;48.24
31443;SHT31;18065;55.876;9.830;2023-03-25T09:50:25;22.31;48.49
31443;SHT31;18065;55.876;9.830;2023-03-25T09:52:56;22.29;48.56
31443;SHT31;18065;55.876;9.830;2023-03-25T09:55:27;22.29;48.55
31443;SHT31;18065;55.876;9.830;2023-03-25T09:57:57;22.28;48.61
31443;SHT31;18065;55.876;9.830;2023-03-25T10:00:27;22.31;48.20
31443;SHT31;18065;55.876;9.830;2023-03-25T10:03:01;22.34;47.59
31443;SHT31;18065;55.876;9.830;2023-03-25T10:05:42;22.34;47.58
31443;SHT31;18065;55.876;9.830;2023-03-25T10:08:15;22.31;47.56
31443;SHT31;18065;55.876;9.830;2023-03-25T10:10:47;22.37;47.10
31443;SHT31;18065;55.876;9.830;2023-03-25T10:13:19;22.38;46.93
31443;SHT31;18065;55.876;9.830;2023-03-25T10:15:50;22.39;46.76
31443;SHT31;18065;55.876;9.830;2023-03-25T10:18:27;22.41;47.02
31443;SHT31;18065;55.876;9.830;2023-03-25T10:21:04;22.42;47.35
31443;SHT31;18065;55.876;9.830;2023-03-25T10:23:35;22.45;47.37
31443;SHT31;18065;55.876;9.830;2023-03-25T10:26:08;22.49;47.30
31443;SHT31;18065;55.876;9.830;2023-03-25T10:28:38;22.51;47.32
31443;SHT31;18065;55.876;9.830;2023-03-25T10:31:08;22.51;47.47
31443;SHT31;18065;55.876;9.830;2023-03-25T10:33:41;22.52;47.48
31443;SHT31;18065;55.876;9.830;2023-03-25T10:36:18;22.51;46.66
31443;SHT31;18065;55.876;9.830;2023-03-25T10:38:50;22.52;47.08
31443;SHT31;18065;55.876;9.830;2023-03-25T10:41:22;22.52;46.51
31443;SHT31;18065;55.876;9.830;2023-03-25T10:43:51;22.51;46.91
31443;SHT31;18065;55.876;9.830;2023-03-25T10:46:23;22.55;47.09
31443;SHT31;18065;55.876;9.830;2023-03-25T10:48:53;22.56;47.17
31443;SHT31;18065;55.876;9.830;2023-03-25T10:51:25;22.54;47.31
31443;SHT31;18065;55.876;9.830;2023-03-25T10:53:54;22.54;47.30
31443;SHT31;18065;55.876;9.830;2023-03-25T10:56:23;22.52;47.28
31443;SHT31;18065;55.876;9.830;2023-03-25T10:58:53;22.56;47.29
31443;SHT31;18065;55.876;9.830;2023-03-25T11:01:26;22.55;47.32
31443;SHT31;18065;55.876;9.830;2023-03-25T11:03:55;22.58;47.25
31443;SHT31;18065;55.876;9.830;2023-03-25T11:06:28;22.59;47.27
31443;SHT31;18065;55.876;9.830;2023-03-25T11:09:09;22.56;47.28
31443;SHT31;18065;55.876;9.830;2023-03-25T11:11:39;22.56;47.37
31443;SHT31;18065;55.876;9.830;2023-03-25T11:14:09;22.55;47.39
31443;SHT31;18065;55.876;9.830;2023-03-25T11:16:40;22.55;47.39
31443;SHT31;18065;55.876;9.830;2023-03-25T11:19:13;22.52;47.47
31443;SHT31;18065;55.876;9.830;2023-03-25T11:21:47;22.56;47.42
31443;SHT31;18065;55.876;9.830;2023-03-25T11:24:17;22.55;47.48
31443;SHT31;18065;55.876;9.830;2023-03-25T11:26:45;22.54;47.50
31443;SHT31;18065;55.876;9.830;2023-03-25T11:29:17;22.54;47.52
31443;SHT31;18065;55.876;9.830;2023-03-25T11:31:54;22.55;47.50
31443;SHT31;18065;55.876;9.830;2023-03-25T11:34:23;22.54;47.47
31443;SHT31;18065;55.876;9.830;2023-03-25T11:36:58;22.55;47.45
31443;SHT31;18065;55.876;9.830;2023-03-25T11:39:29;22.58;47.44
31443;SHT31;18065;55.876;9.830;2023-03-25T11:41:59;22.54;47.46
31443;SHT31;18065;55.876;9.830;2023-03-25T11:44:37;22.55;47.33
31443;SHT31;18065;55.876;9.830;2023-03-25T11:47:06;22.52;47.43
31443;SHT31;18065;55.876;9.830;2023-03-25T11:49:35;22.52;47.43
31443;SHT31;18065;55.876;9.830;2023-03-25T11:52:08;22.52;47.38
31443;SHT31;18065;55.876;9.830;2023-03-25T11:54:40;22.52;47.47
31443;SHT31;18065;55.876;9.830;2023-03-25T11:57:11;22.54;47.45
31443;SHT31;18065;55.876;9.830;2023-03-25T11:59:42;22.52;47.47
31443;SHT31;18065;55.876;9.830;2023-03-25T12:02:16;22.49;47.50
31443;SHT31;18065;55.876;9.830;2023-03-25T12:04:53;22.49;47.48
31443;SHT31;18065;55.876;9.830;2023-03-25T12:07:25;22.54;47.46
31443;SHT31;18065;55.876;9.830;2023-03-25T12:09:54;22.54;47.44
31443;SHT31;18065;55.876;9.830;2023-03-25T12:12:28;22.55;47.44
31443;SHT31;18065;55.876;9.830;2023-03-25T12:15:02;22.55;47.44
31443;SHT31;18065;55.876;9.830;2023-03-25T12:17:36;22.55;47.35
31443;SHT31;18065;55.876;9.830;2023-03-25T12:20:11;22.58;47.44
31443;SHT31;18065;55.876;9.830;2023-03-25T12:22:47;22.56;47.38
31443;SHT31;18065;55.876;9.830;2023-03-25T12:25:22;22.59;47.41
31443;SHT31;18065;55.876;9.830;2023-03-25T12:27:57;22.58;47.41
31443;SHT31;18065;55.876;9.830;2023-03-25T12:30:30;22.59;47.39
31443;SHT31;18065;55.876;9.830;2023-03-25T12:33:03;22.59;47.43
31443;SHT31;18065;55.876;9.830;2023-03-25T12:35:34;22.58;47.45
31443;SHT31;18065;55.876;9.830;2023-03-25T12:38:22;22.59;47.45
31443;SHT31;18065;55.876;9.830;2023-03-25T12:41:06;22.59;47.42
31443;SHT31;18065;55.876;9.830;2023-03-25T12:43:42;22.59;47.42
31443;SHT31;18065;55.876;9.830;2023-03-25T12:46:15;22.62;47.45
31443;SHT31;18065;55.876;9.830;2023-03-25T12:48:51;22.62;47.39
31443;SHT31;18065;55.876;9.830;2023-03-25T12:51:25;22.61;47.38
31443;SHT31;18065;55.876;9.830;2023-03-25T12:54:02;22.61;47.37
31443;SHT31;18065;55.876;9.830;2023-03-25T12:56:46;22.61;47.38
31443;SHT31;18065;55.876;9.830;2023-03-25T13:02:02;22.61;47.43
31443;SHT31;18065;55.876;9.830;2023-03-25T13:04:40;22.56;47.22
31443;SHT31;18065;55.876;9.830;2023-03-25T13:07:14;22.56;47.39
31443;SHT31;18065;55.876;9.830;2023-03-25T13:09:49;22.61;47.42
31443;SHT31;18065;55.876;9.830;2023-03-25T13:12:25;22.61;47.43
31443;SHT31;18065;55.876;9.830;2023-03-25T13:14:56;22.59;47.42
31443;SHT31;18065;55.876;9.830;2023-03-25T13:17:27;22.61;47.50
31443;SHT31;18065;55.876;9.830;2023-03-25T13:19:59;22.61;47.44
31443;SHT31;18065;55.876;9.830;2023-03-25T13:22:30;22.61;47.48
31443;SHT31;18065;55.876;9.830;2023-03-25T13:25:03;22.64;47.54
31443;SHT31;18065;55.876;9.830;2023-03-25T13:27:34;22.64;47.51
31443;SHT31;18065;55.876;9.830;2023-03-25T13:30:07;22.64;47.53
31443;SHT31;18065;55.876;9.830;2023-03-25T13:32:41;22.66;47.60
31443;SHT31;18065;55.876;9.830;2023-03-25T13:35:14;22.65;47.58
31443;SHT31;18065;55.876;9.830;2023-03-25T13:37:45;22.65;47.58
31443;SHT31;18065;55.876;9.830;2023-03-25T13:40:22;22.66;47.58
31443;SHT31;18065;55.876;9.830;2023-03-25T13:42:54;22.64;47.50
31443;SHT31;18065;55.876;9.830;2023-03-25T13:45:24;22.68;47.59
31443;SHT31;18065;55.876;9.830;2023-03-25T13:47:53;22.65;47.61
31443;SHT31;18065;55.876;9.830;2023-03-25T13:50:28;22.65;47.62
31443;SHT31;18065;55.876;9.830;2023-03-25T13:52:58;22.64;47.67
31443;SHT31;18065;55.876;9.830;2023-03-25T13:55:31;22.65;47.68
31443;SHT31;18065;55.876;9.830;2023-03-25T13:58:10;22.66;47.70
31443;SHT31;18065;55.876;9.830;2023-03-25T14:03:35;22.66;47.66
31443;SHT31;18065;55.876;9.830;2023-03-25T14:06:17;22.69;47.72
31443;SHT31;18065;55.876;9.830;2023-03-25T14:11:37;22.66;47.82
31443;SHT31;18065;55.876;9.830;2023-03-25T14:14:10;22.71;47.93
31443;SHT31;18065;55.876;9.830;2023-03-25T14:16:40;22.66;47.98
31443;SHT31;18065;55.876;9.830;2023-03-25T14:19:10;22.68;48.00
31443;SHT31;18065;55.876;9.830;2023-03-25T14:21:40;22.69;47.99
31443;SHT31;18065;55.876;9.830;2023-03-25T14:24:09;22.71;48.12
31443;SHT31;18065;55.876;9.830;2023-03-25T14:26:46;22.66;48.24
31443;SHT31;18065;55.876;9.830;2023-03-25T14:29:20;22.68;48.21
31443;SHT31;18065;55.876;9.830;2023-03-25T14:34:43;22.68;48.43
31443;SHT31;18065;55.876;9.830;2023-03-25T14:37:26;22.71;48.47
31443;SHT31;18065;55.876;9.830;2023-03-25T14:39:59;22.69;48.39
31443;SHT31;18065;55.876;9.830;2023-03-25T14:42:55;22.72;48.42
31443;SHT31;18065;55.876;9.830;2023-03-25T14:45:38;22.72;48.40
31443;SHT31;18065;55.876;9.830;2023-03-25T14:48:21;22.75;48.46
31443;SHT31;18065;55.876;9.830;2023-03-25T14:50:53;22.72;48.44
31443;SHT31;18065;55.876;9.830;2023-03-25T14:53:33;22.75;48.45
31443;SHT31;18065;55.876;9.830;2023-03-25T14:56:04;22.75;48.48
31443;SHT31;18065;55.876;9.830;2023-03-25T14:58:37;22.72;48.57
31443;SHT31;18065;55.876;9.830;2023-03-25T15:01:08;22.75;48.77
31443;SHT31;18065;55.876;9.830;2023-03-25T15:03:38;22.75;48.80
31443;SHT31;18065;55.876;9.830;2023-03-25T15:06:08;22.76;48.77
31443;SHT31;18065;55.876;9.830;2023-03-25T15:08:37;22.76;48.77
31443;SHT31;18065;55.876;9.830;2023-03-25T15:11:07;22.75;48.88
31443;SHT31;18065;55.876;9.830;2023-03-25T15:13:39;22.75;48.85
31443;SHT31;18065;55.876;9.830;2023-03-25T15:16:17;22.75;48.85
31443;SHT31;18065;55.876;9.830;2023-03-25T15:18:59;22.80;48.82
31443;SHT31;18065;55.876;9.830;2023-03-25T15:21:32;22.82;48.94
31443;SHT31;18065;55.876;9.830;2023-03-25T15:24:04;22.82;48.91
31443;SHT31;18065;55.876;9.830;2023-03-25T15:26:34;22.83;48.93
31443;SHT31;18065;55.876;9.830;2023-03-25T15:32:03;22.82;48.99
31443;SHT31;18065;55.876;9.830;2023-03-25T15:37:37;22.83;48.96
31443;SHT31;18065;55.876;9.830;2023-03-25T15:40:15;22.85;49.05
31443;SHT31;18065;55.876;9.830;2023-03-25T15:42:55;22.83;49.06
31443;SHT31;18065;55.876;9.830;2023-03-25T15:45:43;22.82;49.13
31443;SHT31;18065;55.876;9.830;2023-03-25T15:48:22;22.80;49.09
31443;SHT31;18065;55.876;9.830;2023-03-25T15:50:58;22.77;49.30
31443;SHT31;18065;55.876;9.830;2023-03-25T15:56:22;22.77;49.46
31443;SHT31;18065;55.876;9.830;2023-03-25T15:58:53;22.76;49.66
31443;SHT31;18065;55.876;9.830;2023-03-25T16:01:27;22.76;49.77
31443;SHT31;18065;55.876;9.830;2023-03-25T16:04:00;22.72;49.92
31443;SHT31;18065;55.876;9.830;2023-03-25T16:06:29;22.73;50.42
31443;SHT31;18065;55.876;9.830;2023-03-25T16:08:58;22.75;50.05
31443;SHT31;18065;55.876;9.830;2023-03-25T16:11:27;22.77;49.85
31443;SHT31;18065;55.876;9.830;2023-03-25T16:14:03;22.76;49.70
31443;SHT31;18065;55.876;9.830;2023-03-25T16:16:33;22.76;49.73
31443;SHT31;18065;55.876;9.830;2023-03-25T16:19:07;22.76;49.76
31443;SHT31;18065;55.876;9.830;2023-03-25T16:21:36;22.76;49.68
31443;SHT31;18065;55.876;9.830;2023-03-25T16:24:05;22.79;49.59
31443;SHT31;18065;55.876;9.830;2023-03-25T16:26:35;22.79;49.65